Time;durP1;ratioP1;P1;durP2;ratioP2;P2;SDS_P1;SDS_P2;PMS_P1;PMS_P2;Temp;Humidity;BMP_temperature;BMP_pressure;BME280_temperature;BME280_humidity;BME280_pressure;Samples;Min_cycle;Max_cycle;Signal;HPM_P1;HPM_P2
2023/11/03 00:02:22;;;;;;;4.20;2.43;;;;;;;;;;5110317;28;20439;-78
2023/11/03 00:04:52;;;;;;;5.03;1.87;;;;;;;;;;5111352;28;20459;-79
2023/11/03 00:07:20;;;;;;;5.23;1.20;;;;;;;;;;5109368;28;20459;-79
2023/11/03 00:09:48;;;;;;;4.27;1.20;;;;;;;;;;5109384;28;20470;-79
2023/11/03 00:12:15;;;;;;;8.47;1.10;;;;;;;;;;5110049;28;20452;-79
2023/11/03 00:14:43;;;;;;;5.00;1.10;;;;;;;;;;5107709;28;20535;-79
2023/11/03 00:17:13;;;;;;;3.10;1.13;;;;;;;;;;5109368;28;20480;-79
2023/11/03 00:19:41;;;;;;;3.87;1.23;;;;;;;;;;5110133;28;20545;-79
2023/11/03 00:22:10;;;;;;;6.67;1.30;;;;;;;;;;5108551;28;20462;-80
2023/11/03 00:24:37;;;;;;;2.43;0.80;;;;;;;;;;5106844;28;20459;-78
2023/11/03 00:27:05;;;;;;;5.07;1.23;;;;;;;;;;5107088;28;20530;-80
2023/11/03 00:29:32;;;;;;;6.07;1.47;;;;;;;;;;5105896;28;20458;-78
2023/11/03 00:32:00;;;;;;;4.13;1.30;;;;;;;;;;5106424;28;20475;-78
2023/11/03 00:34:27;;;;;;;2.43;0.93;;;;;;;;;;5105242;28;20953;-79
2023/11/03 00:36:55;;;;;;;3.70;1.53;;;;;;;;;;5106813;28;20451;-78
2023/11/03 00:39:24;;;;;;;3.07;1.00;;;;;;;;;;5106302;28;20875;-78
2023/11/03 00:41:55;;;;;;;2.47;1.10;;;;;;;;;;5103529;28;20461;-80
2023/11/03 00:44:25;;;;;;;5.00;0.90;;;;;;;;;;5105117;28;20455;-78
2023/11/03 00:46:53;;;;;;;5.43;1.40;;;;;;;;;;5105852;28;20459;-78
2023/11/03 00:49:21;;;;;;;7.40;1.00;;;;;;;;;;5105870;28;20479;-78
2023/11/03 00:51:48;;;;;;;4.73;1.47;;;;;;;;;;5106300;28;20479;-78
2023/11/03 00:54:16;;;;;;;2.70;1.07;;;;;;;;;;5106871;28;20519;-78
2023/11/03 00:56:48;;;;;;;4.13;0.83;;;;;;;;;;5105168;28;20530;-80
2023/11/03 00:59:17;;;;;;;5.43;1.03;;;;;;;;;;5105432;28;20727;-79
2023/11/03 01:01:45;;;;;;;4.00;1.30;;;;;;;;;;5106977;28;20460;-79
2023/11/03 01:04:13;;;;;;;3.90;1.43;;;;;;;;;;5104649;28;20452;-79
2023/11/03 01:06:40;;;;;;;4.23;1.10;;;;;;;;;;5104846;28;20479;-78
2023/11/03 01:09:09;;;;;;;2.63;1.20;;;;;;;;;;5103351;28;20454;-77
2023/11/03 01:11:38;;;;;;;3.53;1.20;;;;;;;;;;5107194;28;20440;-78
2023/11/03 01:14:09;;;;;;;3.53;1.00;;;;;;;;;;5107943;28;20474;-78
2023/11/03 01:16:38;;;;;;;6.43;1.50;;;;;;;;;;5107673;28;20448;-78
2023/11/03 01:19:06;;;;;;;2.50;1.10;;;;;;;;;;5107964;28;20461;-79
2023/11/03 01:21:33;;;;;;;4.60;1.03;;;;;;;;;;5108724;28;20500;-79
2023/11/03 01:24:01;;;;;;;5.80;1.67;;;;;;;;;;5110518;28;20497;-79
2023/11/03 01:26:35;;;;;;;3.23;1.30;;;;;;;;;;5107934;28;20539;-79
2023/11/03 01:29:04;;;;;;;4.70;1.47;;;;;;;;;;5108925;28;20588;-78
2023/11/03 01:31:36;;;;;;;6.17;1.37;;;;;;;;;;5109654;28;20490;-78
2023/11/03 01:34:05;;;;;;;4.70;1.20;;;;;;;;;;5109878;28;20436;-78
2023/11/03 01:36:35;;;;;;;4.30;1.23;;;;;;;;;;5107854;28;20508;-79
2023/11/03 01:39:05;;;;;;;3.70;1.53;;;;;;;;;;5107767;28;20455;-79
2023/11/03 01:41:33;;;;;;;11.30;2.10;;;;;;;;;;5110050;28;20462;-78
2023/11/03 01:44:09;;;;;;;4.80;1.20;;;;;;;;;;5109486;28;20451;-79
2023/11/03 01:46:39;;;;;;;4.23;0.80;;;;;;;;;;5109670;28;20485;-79
2023/11/03 01:49:07;;;;;;;6.50;1.23;;;;;;;;;;5108647;28;20451;-79
2023/11/03 01:51:34;;;;;;;4.87;1.20;;;;;;;;;;5107622;28;20455;-79
2023/11/03 01:54:03;;;;;;;6.07;1.23;;;;;;;;;;5108520;28;20459;-79
2023/11/03 01:56:32;;;;;;;4.37;1.30;;;;;;;;;;5107565;28;20451;-78
2023/11/03 01:59:09;;;;;;;6.93;1.40;;;;;;;;;;5106884;28;20746;-79
2023/11/03 02:01:38;;;;;;;4.83;1.00;;;;;;;;;;5107563;28;21042;-79
2023/11/03 02:04:06;;;;;;;4.50;1.50;;;;;;;;;;5106135;28;20466;-77
2023/11/03 02:06:33;;;;;;;7.40;1.50;;;;;;;;;;5104782;28;20472;-79
2023/11/03 02:09:01;;;;;;;4.10;1.00;;;;;;;;;;5107663;28;20455;-79
2023/11/03 02:11:29;;;;;;;4.33;1.23;;;;;;;;;;5105789;28;20742;-80
2023/11/03 02:13:57;;;;;;;4.07;1.10;;;;;;;;;;5106417;28;20480;-78
2023/11/03 02:16:24;;;;;;;3.73;1.50;;;;;;;;;;5104586;28;20981;-80
2023/11/03 02:18:54;;;;;;;7.23;0.90;;;;;;;;;;5107648;28;20458;-79
2023/11/03 02:21:21;;;;;;;3.30;1.10;;;;;;;;;;5105121;28;20467;-79
2023/11/03 02:23:50;;;;;;;4.90;2.17;;;;;;;;;;5107621;28;20456;-79
2023/11/03 02:26:18;;;;;;;4.33;1.33;;;;;;;;;;5106687;28;20448;-79
2023/11/03 02:28:45;;;;;;;7.73;1.00;;;;;;;;;;5107041;28;20460;-78
2023/11/03 02:31:12;;;;;;;2.70;1.17;;;;;;;;;;5106666;28;20508;-79
2023/11/03 02:33:40;;;;;;;6.00;1.50;;;;;;;;;;5110563;28;20528;-80
2023/11/03 02:36:07;;;;;;;5.47;1.30;;;;;;;;;;5106270;28;20467;-80
2023/11/03 02:38:35;;;;;;;4.50;2.03;;;;;;;;;;5108918;28;20483;-78
2023/11/03 02:41:04;;;;;;;5.57;1.13;;;;;;;;;;5107517;28;20459;-80
2023/11/03 02:43:32;;;;;;;3.63;1.50;;;;;;;;;;5106966;28;20843;-80
2023/11/03 02:45:59;;;;;;;6.47;1.30;;;;;;;;;;5108761;28;20510;-79
2023/11/03 02:48:27;;;;;;;4.00;1.60;;;;;;;;;;5108640;28;20462;-79
2023/11/03 02:50:55;;;;;;;3.83;1.57;;;;;;;;;;5106396;28;20488;-79
2023/11/03 02:53:23;;;;;;;4.00;1.30;;;;;;;;;;5108603;28;20458;-78
2023/11/03 02:55:50;;;;;;;5.73;1.30;;;;;;;;;;5109387;28;20483;-79
2023/11/03 02:58:21;;;;;;;3.10;1.10;;;;;;;;;;5106110;28;20448;-78
2023/11/03 03:00:48;;;;;;;7.30;0.80;;;;;;;;;;5106042;28;20459;-79
2023/11/03 03:03:15;;;;;;;4.17;1.30;;;;;;;;;;5105536;28;20498;-78
2023/11/03 03:05:43;;;;;;;2.73;1.33;;;;;;;;;;5105277;28;20455;-80
2023/11/03 03:08:10;;;;;;;4.53;1.00;;;;;;;;;;5106523;28;20452;-79
2023/11/03 03:10:38;;;;;;;4.73;1.23;;;;;;;;;;5105218;28;20468;-79
2023/11/03 03:13:08;;;;;;;3.13;1.10;;;;;;;;;;5105881;28;20452;-79
2023/11/03 03:15:37;;;;;;;3.80;1.20;;;;;;;;;;5105987;28;20511;-80
2023/11/03 03:18:05;;;;;;;2.70;1.20;;;;;;;;;;5105176;28;20451;-80
2023/11/03 03:20:32;;;;;;;5.00;1.20;;;;;;;;;;5108765;28;20485;-79
2023/11/03 03:22:59;;;;;;;5.40;1.10;;;;;;;;;;5106066;28;20486;-79
2023/11/03 03:25:27;;;;;;;5.23;0.90;;;;;;;;;;5106728;28;20550;-80
2023/11/03 03:27:55;;;;;;;3.53;1.10;;;;;;;;;;5103452;28;20447;-81
2023/11/03 03:30:22;;;;;;;9.27;1.40;;;;;;;;;;5104400;28;20531;-78
2023/11/03 03:32:59;;;;;;;3.00;0.90;;;;;;;;;;5102486;28;20452;-80
2023/11/03 03:35:26;;;;;;;6.67;1.00;;;;;;;;;;5104864;28;20508;-78
2023/11/03 03:37:57;;;;;;;3.93;1.07;;;;;;;;;;5105099;28;20474;-79
2023/11/03 03:40:24;;;;;;;4.13;1.03;;;;;;;;;;5103182;28;20485;-80
2023/11/03 03:42:58;;;;;;;5.03;0.87;;;;;;;;;;5105948;28;20455;-78
2023/11/03 03:45:25;;;;;;;5.70;1.40;;;;;;;;;;5104999;28;20511;-79
2023/11/03 03:47:54;;;;;;;3.67;1.33;;;;;;;;;;5104954;28;20814;-79
2023/11/03 03:50:22;;;;;;;2.40;0.83;;;;;;;;;;5106898;28;20459;-79
2023/11/03 03:52:49;;;;;;;5.23;1.20;;;;;;;;;;5107371;28;20533;-79
2023/11/03 03:55:17;;;;;;;4.30;0.77;;;;;;;;;;5106929;28;20491;-80
2023/11/03 03:57:49;;;;;;;6.13;1.13;;;;;;;;;;5106182;28;20487;-79
2023/11/03 04:00:18;;;;;;;2.90;1.10;;;;;;;;;;5107779;28;20479;-79
2023/11/03 04:02:46;;;;;;;5.03;1.50;;;;;;;;;;5106030;28;20455;-79
2023/11/03 04:05:15;;;;;;;6.03;1.30;;;;;;;;;;5106180;28;20440;-79
2023/11/03 04:07:45;;;;;;;4.67;1.30;;;;;;;;;;5105789;28;20494;-79
2023/11/03 04:10:16;;;;;;;8.70;1.30;;;;;;;;;;5104060;28;20519;-78
2023/11/03 04:12:43;;;;;;;5.43;1.00;;;;;;;;;;5107462;28;20511;-78
2023/11/03 04:15:11;;;;;;;4.00;1.23;;;;;;;;;;5105631;28;20515;-79
2023/11/03 04:17:39;;;;;;;3.50;1.13;;;;;;;;;;5106443;28;20629;-79
2023/11/03 04:20:15;;;;;;;5.23;1.23;;;;;;;;;;5101492;28;20451;-78
2023/11/03 04:22:43;;;;;;;4.23;1.50;;;;;;;;;;5101721;28;20447;-78
2023/11/03 04:25:11;;;;;;;5.60;1.27;;;;;;;;;;5104402;28;20469;-79
2023/11/03 04:27:42;;;;;;;7.53;1.83;;;;;;;;;;5102325;28;20452;-77
2023/11/03 04:30:10;;;;;;;7.30;1.40;;;;;;;;;;5101234;28;20630;-79
2023/11/03 04:32:37;;;;;;;4.50;1.20;;;;;;;;;;5101769;28;20459;-77
2023/11/03 04:35:07;;;;;;;4.27;1.17;;;;;;;;;;5103223;28;20519;-79
2023/11/03 04:37:35;;;;;;;3.80;1.33;;;;;;;;;;5103664;28;20482;-78
2023/11/03 04:40:07;;;;;;;7.20;1.23;;;;;;;;;;5102103;28;20684;-79
2023/11/03 04:42:35;;;;;;;3.00;0.90;;;;;;;;;;5100788;28;20536;-79
2023/11/03 04:45:03;;;;;;;5.90;1.20;;;;;;;;;;5103742;28;20455;-79
2023/11/03 04:47:34;;;;;;;9.20;1.47;;;;;;;;;;5103469;28;20455;-78
2023/11/03 04:50:06;;;;;;;4.30;1.13;;;;;;;;;;5103293;28;20548;-78
2023/11/03 04:52:33;;;;;;;4.33;1.43;;;;;;;;;;5106641;28;20436;-79
2023/11/03 04:55:01;;;;;;;3.10;1.30;;;;;;;;;;5106338;28;20450;-78
2023/11/03 04:57:30;;;;;;;7.33;1.33;;;;;;;;;;5105708;28;20870;-80
2023/11/03 04:59:57;;;;;;;3.80;1.40;;;;;;;;;;5108755;28;20432;-80
2023/11/03 05:02:26;;;;;;;7.37;1.63;;;;;;;;;;5106613;28;20490;-79
2023/11/03 05:04:54;;;;;;;4.90;1.20;;;;;;;;;;5106857;28;20463;-80
2023/11/03 05:07:22;;;;;;;6.40;1.67;;;;;;;;;;5109061;28;20448;-80
2023/11/03 05:09:51;;;;;;;3.70;1.40;;;;;;;;;;5106535;28;20463;-79
2023/11/03 05:12:18;;;;;;;3.70;0.90;;;;;;;;;;5106854;28;20532;-79
2023/11/03 05:14:47;;;;;;;4.03;1.07;;;;;;;;;;5106096;28;20505;-79
2023/11/03 05:17:15;;;;;;;2.67;1.10;;;;;;;;;;5106360;28;20487;-80
2023/11/03 05:19:43;;;;;;;4.70;1.27;;;;;;;;;;5106467;28;20463;-80
2023/11/03 05:22:10;;;;;;;6.60;1.20;;;;;;;;;;5105684;28;20450;-79
2023/11/03 05:24:38;;;;;;;7.50;1.60;;;;;;;;;;5110118;28;20813;-80
2023/11/03 05:27:08;;;;;;;4.17;1.37;;;;;;;;;;5105044;28;20460;-79
2023/11/03 05:29:35;;;;;;;4.53;1.33;;;;;;;;;;5108007;28;20490;-79
2023/11/03 05:32:06;;;;;;;6.97;1.47;;;;;;;;;;5103503;28;20565;-79
2023/11/03 05:34:34;;;;;;;8.17;1.60;;;;;;;;;;5105213;28;20459;-79
2023/11/03 05:37:02;;;;;;;3.90;1.50;;;;;;;;;;5107237;28;20483;-79
2023/11/03 05:39:30;;;;;;;4.17;0.83;;;;;;;;;;5103043;28;20889;-79
2023/11/03 05:41:58;;;;;;;4.03;1.07;;;;;;;;;;5108037;28;20447;-78
2023/11/03 05:44:26;;;;;;;8.83;0.80;;;;;;;;;;5106332;28;20459;-79
2023/11/03 05:46:54;;;;;;;3.10;0.97;;;;;;;;;;5107201;28;20470;-79
2023/11/03 05:49:23;;;;;;;3.43;1.10;;;;;;;;;;5108682;28;20462;-79
2023/11/03 05:51:51;;;;;;;9.67;1.20;;;;;;;;;;5106515;28;20439;-79
2023/11/03 05:54:18;;;;;;;16.13;1.47;;;;;;;;;;5105297;28;20448;-79
2023/11/03 05:56:46;;;;;;;4.57;1.40;;;;;;;;;;5105527;28;20471;-79
2023/11/03 05:59:15;;;;;;;5.97;1.40;;;;;;;;;;5103710;28;20448;-79
2023/11/03 06:01:43;;;;;;;5.00;1.47;;;;;;;;;;5102861;28;20466;-79
2023/11/03 06:04:11;;;;;;;5.30;1.40;;;;;;;;;;5102256;28;20456;-79
2023/11/03 06:06:40;;;;;;;4.33;1.27;;;;;;;;;;5101953;28;20452;-79
2023/11/03 06:09:07;;;;;;;4.10;1.30;;;;;;;;;;5101392;28;20467;-79
2023/11/03 06:11:36;;;;;;;6.67;1.70;;;;;;;;;;5102976;28;20451;-77
2023/11/03 06:14:04;;;;;;;5.67;2.17;;;;;;;;;;5100498;28;20563;-78
2023/11/03 06:16:34;;;;;;;8.83;1.87;;;;;;;;;;5104158;28;20555;-79
2023/11/03 06:19:02;;;;;;;4.67;1.90;;;;;;;;;;5101072;28;20526;-79
2023/11/03 06:21:29;;;;;;;6.00;2.80;;;;;;;;;;5101430;28;20470;-78
2023/11/03 06:23:58;;;;;;;3.90;1.47;;;;;;;;;;5101497;28;20451;-78
2023/11/03 06:26:26;;;;;;;7.97;1.90;;;;;;;;;;5100374;28;20436;-78
2023/11/03 06:28:56;;;;;;;4.37;1.13;;;;;;;;;;5100296;28;20860;-78
2023/11/03 06:31:24;;;;;;;3.17;1.30;;;;;;;;;;5099464;28;20485;-79
2023/11/03 06:33:51;;;;;;;6.43;1.80;;;;;;;;;;5096378;28;20890;-79
2023/11/03 06:36:18;;;;;;;7.30;1.57;;;;;;;;;;5089832;28;20977;-78
2023/11/03 06:38:46;;;;;;;9.93;1.73;;;;;;;;;;5095600;28;20432;-77
2023/11/03 06:41:16;;;;;;;11.53;1.67;;;;;;;;;;5096044;28;20455;-78
2023/11/03 06:43:43;;;;;;;4.53;1.50;;;;;;;;;;5094620;28;20547;-79
2023/11/03 06:46:11;;;;;;;3.17;1.33;;;;;;;;;;5093041;28;20558;-78
2023/11/03 06:48:39;;;;;;;7.70;1.87;;;;;;;;;;5098578;28;20460;-79
2023/11/03 06:51:10;;;;;;;7.43;2.20;;;;;;;;;;5096570;28;20491;-79
2023/11/03 06:53:38;;;;;;;5.60;1.27;;;;;;;;;;5096119;28;20543;-79
2023/11/03 06:56:07;;;;;;;5.17;1.43;;;;;;;;;;5076220;28;20481;-79
2023/11/03 06:58:37;;;;;;;7.30;1.30;;;;;;;;;;5074878;28;20460;-79
2023/11/03 07:01:05;;;;;;;7.00;1.73;;;;;;;;;;5096318;28;20766;-78
2023/11/03 07:03:33;;;;;;;5.97;1.00;;;;;;;;;;5097746;28;20487;-78
2023/11/03 07:06:04;;;;;;;8.13;1.80;;;;;;;;;;5096788;28;20550;-79
2023/11/03 07:08:31;;;;;;;6.43;1.77;;;;;;;;;;5096613;28;20734;-81
2023/11/03 07:10:59;;;;;;;8.77;1.20;;;;;;;;;;5097766;28;20447;-78
2023/11/03 07:13:28;;;;;;;3.67;1.23;;;;;;;;;;5099722;28;20463;-78
2023/11/03 07:15:57;;;;;;;4.40;0.80;;;;;;;;;;5098913;28;20456;-78
2023/11/03 07:18:25;;;;;;;3.83;1.13;;;;;;;;;;5096493;28;20456;-79
2023/11/03 07:20:53;;;;;;;4.23;1.03;;;;;;;;;;5097039;28;20486;-79
2023/11/03 07:23:21;;;;;;;6.10;1.77;;;;;;;;;;5095482;28;20451;-78
2023/11/03 07:25:50;;;;;;;6.17;1.27;;;;;;;;;;5095870;28;21099;-78
2023/11/03 07:28:20;;;;;;;6.30;1.67;;;;;;;;;;5101037;28;20440;-78
2023/11/03 07:30:50;;;;;;;5.23;1.67;;;;;;;;;;5096669;28;20456;-79
2023/11/03 07:33:20;;;;;;;4.80;0.90;;;;;;;;;;5098182;28;20452;-78
2023/11/03 07:35:47;;;;;;;6.03;1.83;;;;;;;;;;5096093;28;20970;-79
2023/11/03 07:38:15;;;;;;;5.13;1.20;;;;;;;;;;5093879;28;20479;-80
2023/11/03 07:40:43;;;;;;;7.17;1.20;;;;;;;;;;5097630;28;20890;-80
2023/11/03 07:43:11;;;;;;;4.20;1.30;;;;;;;;;;5097777;28;20877;-79
2023/11/03 07:45:39;;;;;;;3.63;1.20;;;;;;;;;;5098614;28;20448;-78
2023/11/03 07:48:07;;;;;;;6.83;1.70;;;;;;;;;;5099334;28;20444;-78
2023/11/03 07:50:37;;;;;;;4.33;1.10;;;;;;;;;;5099863;28;20455;-78
2023/11/03 07:53:07;;;;;;;3.90;1.50;;;;;;;;;;5102121;28;20448;-79
2023/11/03 07:55:37;;;;;;;5.70;1.27;;;;;;;;;;5097010;28;20506;-77
2023/11/03 07:58:05;;;;;;;3.43;1.60;;;;;;;;;;5097152;28;20514;-77
2023/11/03 08:00:34;;;;;;;5.63;1.20;;;;;;;;;;5098795;28;20467;-78
2023/11/03 08:03:10;;;;;;;8.40;1.70;;;;;;;;;;5098783;28;20563;-78
2023/11/03 08:05:39;;;;;;;4.00;0.90;;;;;;;;;;5105105;28;20439;-79
2023/11/03 08:08:07;;;;;;;3.47;1.00;;;;;;;;;;5111147;28;20455;-78
2023/11/03 08:10:34;;;;;;;6.77;1.10;;;;;;;;;;5106048;28;20457;-78
2023/11/03 08:13:02;;;;;;;2.90;1.20;;;;;;;;;;5099853;28;20459;-77
2023/11/03 08:15:29;;;;;;;4.10;1.30;;;;;;;;;;5095874;28;20460;-77
2023/11/03 08:17:57;;;;;;;5.47;1.27;;;;;;;;;;5101772;28;20819;-78
2023/11/03 08:20:25;;;;;;;6.43;1.27;;;;;;;;;;5097792;28;20448;-78
2023/11/03 08:23:02;;;;;;;5.37;1.10;;;;;;;;;;5097722;28;20534;-78
2023/11/03 08:25:31;;;;;;;3.93;1.33;;;;;;;;;;5097012;28;20467;-78
2023/11/03 08:27:59;;;;;;;5.80;1.20;;;;;;;;;;5099222;28;20447;-78
2023/11/03 08:30:26;;;;;;;6.70;1.60;;;;;;;;;;5099731;28;20528;-78
2023/11/03 08:33:01;;;;;;;3.00;1.00;;;;;;;;;;5101328;28;20460;-79
2023/11/03 08:35:30;;;;;;;4.07;1.87;;;;;;;;;;5103889;28;20475;-80
2023/11/03 08:38:03;;;;;;;3.60;1.20;;;;;;;;;;5095508;28;20523;-77
2023/11/03 08:40:32;;;;;;;3.33;1.20;;;;;;;;;;5097452;28;20461;-77
2023/11/03 08:43:01;;;;;;;3.27;1.43;;;;;;;;;;5095102;28;20518;-78
2023/11/03 08:45:28;;;;;;;3.13;0.83;;;;;;;;;;5096888;28;20455;-77
2023/11/03 08:47:56;;;;;;;4.87;1.60;;;;;;;;;;5093570;28;20463;-77
2023/11/03 08:50:24;;;;;;;3.53;1.33;;;;;;;;;;5100412;28;20496;-77
2023/11/03 08:52:59;;;;;;;4.53;1.10;;;;;;;;;;5103767;28;20466;-77
2023/11/03 08:55:28;;;;;;;2.97;1.00;;;;;;;;;;5105296;28;20455;-79
2023/11/03 08:57:57;;;;;;;4.73;1.10;;;;;;;;;;5103291;28;20507;-79
2023/11/03 09:00:26;;;;;;;5.87;1.47;;;;;;;;;;5098487;28;20459;-79
2023/11/03 09:03:15;;;;;;;2.57;1.00;;;;;;;;;;5094245;28;20836;-78
2023/11/03 09:05:43;;;;;;;3.30;1.00;;;;;;;;;;5086798;28;20804;-80
2023/11/03 09:08:12;;;;;;;4.60;1.53;;;;;;;;;;5104146;28;20708;-78
2023/11/03 09:10:44;;;;;;;2.07;0.70;;;;;;;;;;5098652;28;20871;-79
2023/11/03 09:13:11;;;;;;;3.20;0.80;;;;;;;;;;5098249;28;20750;-79
2023/11/03 09:15:39;;;;;;;2.60;0.80;;;;;;;;;;5102948;28;20451;-77
2023/11/03 09:18:08;;;;;;;5.43;0.90;;;;;;;;;;5099408;28;20712;-78
2023/11/03 09:20:36;;;;;;;4.27;1.13;;;;;;;;;;5096642;28;20823;-77
2023/11/03 09:23:06;;;;;;;5.13;1.43;;;;;;;;;;5097830;28;20452;-78
2023/11/03 09:25:34;;;;;;;8.30;1.07;;;;;;;;;;5094821;28;20963;-78
2023/11/03 09:28:10;;;;;;;4.17;1.10;;;;;;;;;;5091216;28;20505;-79
2023/11/03 09:30:38;;;;;;;6.13;1.00;;;;;;;;;;5084540;28;20443;-78
2023/11/03 09:33:11;;;;;;;3.17;1.10;;;;;;;;;;5097964;28;20506;-78
2023/11/03 09:35:40;;;;;;;2.80;1.00;;;;;;;;;;5094958;28;20460;-77
2023/11/03 09:38:16;;;;;;;4.60;1.30;;;;;;;;;;5087804;28;20509;-79
2023/11/03 09:40:46;;;;;;;10.40;1.30;;;;;;;;;;5098460;28;20455;-80
2023/11/03 09:43:21;;;;;;;6.03;1.57;;;;;;;;;;5103312;28;20447;-77
2023/11/03 09:45:48;;;;;;;4.80;1.47;;;;;;;;;;5082481;28;20452;-78
2023/11/03 09:48:21;;;;;;;9.77;1.60;;;;;;;;;;5086583;28;20455;-79
2023/11/03 09:50:48;;;;;;;2.90;0.80;;;;;;;;;;5082743;28;20436;-79
2023/11/03 09:53:18;;;;;;;4.87;1.57;;;;;;;;;;5083998;28;20437;-80
2023/11/03 09:55:49;;;;;;;3.60;0.90;;;;;;;;;;5084757;28;20488;-79
2023/11/03 09:58:18;;;;;;;5.83;1.07;;;;;;;;;;5096517;28;20809;-80
2023/11/03 10:00:50;;;;;;;3.13;0.83;;;;;;;;;;5085855;28;20956;-79
2023/11/03 10:03:26;;;;;;;4.17;1.30;;;;;;;;;;5099435;28;20462;-78
2023/11/03 10:05:55;;;;;;;5.70;0.97;;;;;;;;;;5100204;28;20482;-77
2023/11/03 10:08:28;;;;;;;9.77;1.80;;;;;;;;;;5092425;28;20903;-78
2023/11/03 10:10:57;;;;;;;2.80;1.27;;;;;;;;;;5088372;28;20547;-79
2023/11/03 10:13:32;;;;;;;5.60;1.20;;;;;;;;;;5096727;28;21645;-79
2023/11/03 10:16:01;;;;;;;3.53;1.37;;;;;;;;;;5095013;28;20545;-79
2023/11/03 10:18:30;;;;;;;3.73;1.30;;;;;;;;;;5094887;28;20494;-77
2023/11/03 10:20:58;;;;;;;4.03;1.67;;;;;;;;;;5098301;28;20494;-79
2023/11/03 10:23:26;;;;;;;3.97;1.10;;;;;;;;;;5102723;28;20474;-79
2023/11/03 10:25:56;;;;;;;5.10;1.13;;;;;;;;;;5100592;28;20467;-79
2023/11/03 10:28:26;;;;;;;5.20;1.30;;;;;;;;;;5090821;28;20449;-79
2023/11/03 10:30:59;;;;;;;3.97;1.40;;;;;;;;;;5107709;28;20454;-79
2023/11/03 10:33:26;;;;;;;4.37;0.80;;;;;;;;;;5101253;28;20517;-78
2023/11/03 10:35:54;;;;;;;3.67;1.00;;;;;;;;;;5092815;28;20712;-78
2023/11/03 10:38:24;;;;;;;3.40;1.10;;;;;;;;;;5098617;28;20484;-78
2023/11/03 10:40:54;;;;;;;4.00;0.90;;;;;;;;;;5099084;28;20494;-78
2023/11/03 10:43:23;;;;;;;4.37;1.40;;;;;;;;;;5098987;28;20540;-79
2023/11/03 10:45:53;;;;;;;4.33;0.80;;;;;;;;;;5096529;28;20451;-78
2023/11/03 10:48:29;;;;;;;2.47;0.93;;;;;;;;;;5091949;28;20729;-79
2023/11/03 10:51:01;;;;;;;3.90;0.90;;;;;;;;;;5091304;28;20515;-77
2023/11/03 10:53:34;;;;;;;4.77;1.03;;;;;;;;;;5093149;28;20513;-77
2023/11/03 10:56:03;;;;;;;3.77;1.20;;;;;;;;;;5086025;28;21027;-77
2023/11/03 10:58:31;;;;;;;2.50;1.27;;;;;;;;;;5082046;28;20813;-77
2023/11/03 11:01:03;;;;;;;5.10;2.00;;;;;;;;;;5090986;28;20521;-78
2023/11/03 11:03:34;;;;;;;4.00;1.50;;;;;;;;;;5083398;28;20455;-77
2023/11/03 11:06:05;;;;;;;4.60;1.87;;;;;;;;;;5093968;28;20498;-78
2023/11/03 11:08:34;;;;;;;5.23;2.70;;;;;;;;;;5100996;28;20455;-79
2023/11/03 11:11:05;;;;;;;6.70;1.90;;;;;;;;;;5101139;28;20451;-78
2023/11/03 11:13:34;;;;;;;3.83;1.90;;;;;;;;;;5098662;28;20492;-79
2023/11/03 11:16:08;;;;;;;4.30;1.90;;;;;;;;;;5101373;28;20781;-79
2023/11/03 11:18:43;;;;;;;6.20;1.50;;;;;;;;;;5103559;28;20476;-78
2023/11/03 11:21:14;;;;;;;4.90;1.90;;;;;;;;;;5099316;28;20520;-78
2023/11/03 11:23:47;;;;;;;2.97;0.90;;;;;;;;;;5103719;28;20459;-80
2023/11/03 11:26:17;;;;;;;2.43;1.10;;;;;;;;;;5091263;28;21084;-80
2023/11/03 11:28:45;;;;;;;3.10;1.47;;;;;;;;;;5077432;28;20452;-78
2023/11/03 11:31:33;;;;;;;4.40;2.60;;;;;;;;;;5084846;28;20621;-78
2023/11/03 11:34:02;;;;;;;6.07;1.30;;;;;;;;;;5098088;28;20523;-78
2023/11/03 11:36:31;;;;;;;2.80;1.07;;;;;;;;;;5100170;28;20481;-78
2023/11/03 11:39:04;;;;;;;6.30;1.70;;;;;;;;;;5099363;28;20476;-78
2023/11/03 11:41:34;;;;;;;5.13;1.37;;;;;;;;;;5090102;28;20744;-78
2023/11/03 11:44:02;;;;;;;3.07;1.50;;;;;;;;;;5088733;28;20967;-79
2023/11/03 11:46:31;;;;;;;8.57;1.70;;;;;;;;;;5094010;28;20459;-77
2023/11/03 11:49:02;;;;;;;4.23;1.27;;;;;;;;;;5081634;28;20771;-79
2023/11/03 11:51:31;;;;;;;4.43;2.17;;;;;;;;;;5092063;28;20457;-78
2023/11/03 11:54:00;;;;;;;5.50;1.73;;;;;;;;;;5098081;28;20467;-78
2023/11/03 11:56:28;;;;;;;4.20;1.27;;;;;;;;;;5093015;28;20482;-79
2023/11/03 11:59:09;;;;;;;5.57;1.10;;;;;;;;;;5093096;28;20831;-79
2023/11/03 12:01:37;;;;;;;5.93;1.37;;;;;;;;;;5102326;28;20447;-78
2023/11/03 12:04:04;;;;;;;3.50;1.80;;;;;;;;;;5100496;28;20858;-79
2023/11/03 12:06:35;;;;;;;6.60;1.30;;;;;;;;;;5094019;28;20480;-78
2023/11/03 12:09:03;;;;;;;3.50;1.83;;;;;;;;;;5085088;28;20457;-79
2023/11/03 12:11:32;;;;;;;6.27;1.73;;;;;;;;;;5097580;28;20456;-79
2023/11/03 12:14:00;;;;;;;5.30;1.57;;;;;;;;;;5083287;28;20744;-79
2023/11/03 12:16:28;;;;;;;4.63;1.60;;;;;;;;;;5095094;28;20505;-78
2023/11/03 12:18:55;;;;;;;4.37;1.53;;;;;;;;;;5096800;28;20964;-78
2023/11/03 12:21:24;;;;;;;4.87;1.90;;;;;;;;;;5092085;28;20463;-79
2023/11/03 12:23:59;;;;;;;5.30;2.60;;;;;;;;;;5099244;28;20466;-79
2023/11/03 12:26:34;;;;;;;2.53;1.10;;;;;;;;;;5089932;28;21037;-79
2023/11/03 12:29:26;;;;;;;8.83;5.00;;;;;;;;;;5094500;28;21021;-79
2023/11/03 12:31:54;;;;;;;3.50;1.60;;;;;;;;;;5079006;28;20487;-79
2023/11/03 12:34:22;;;;;;;5.03;1.43;;;;;;;;;;5087149;28;21018;-79
2023/11/03 12:36:52;;;;;;;5.10;1.63;;;;;;;;;;5086114;28;20467;-78
2023/11/03 12:39:22;;;;;;;6.40;1.80;;;;;;;;;;5093857;28;20577;-79
2023/11/03 12:42:02;;;;;;;8.53;1.33;;;;;;;;;;5086149;28;20460;-79
2023/11/03 12:44:31;;;;;;;4.67;1.43;;;;;;;;;;5091217;28;20488;-80
2023/11/03 12:47:01;;;;;;;3.30;1.43;;;;;;;;;;5084330;28;20531;-79
2023/11/03 12:49:31;;;;;;;3.20;1.50;;;;;;;;;;5086416;28;21147;-78
2023/11/03 12:51:58;;;;;;;5.63;1.40;;;;;;;;;;5083625;28;20481;-78
2023/11/03 12:54:28;;;;;;;4.30;1.90;;;;;;;;;;5086781;28;20464;-78
2023/11/03 12:56:56;;;;;;;4.17;1.40;;;;;;;;;;5096555;28;20456;-79
2023/11/03 12:59:24;;;;;;;7.20;1.90;;;;;;;;;;5099862;28;20592;-80
2023/11/03 13:01:52;;;;;;;6.07;1.40;;;;;;;;;;5102723;28;20456;-80
2023/11/03 13:04:20;;;;;;;4.40;1.60;;;;;;;;;;5100263;28;20439;-79
2023/11/03 13:06:49;;;;;;;2.40;1.27;;;;;;;;;;5099247;28;20498;-79
2023/11/03 13:09:24;;;;;;;7.70;2.70;;;;;;;;;;5095264;28;20470;-78
2023/11/03 13:11:53;;;;;;;4.73;1.30;;;;;;;;;;5101620;28;20478;-78
2023/11/03 13:14:21;;;;;;;4.47;1.10;;;;;;;;;;5100349;28;20491;-78
2023/11/03 13:16:49;;;;;;;8.10;1.50;;;;;;;;;;5101623;28;20459;-77
2023/11/03 13:19:18;;;;;;;6.50;1.37;;;;;;;;;;5103927;28;21226;-78
2023/11/03 13:21:47;;;;;;;5.13;1.47;;;;;;;;;;5092306;28;20473;-78
2023/11/03 13:24:21;;;;;;;4.97;1.10;;;;;;;;;;5091739;28;20959;-79
2023/11/03 13:26:50;;;;;;;4.17;1.67;;;;;;;;;;5089627;28;20456;-77
2023/11/03 13:29:19;;;;;;;4.60;1.37;;;;;;;;;;5090414;28;20484;-78
2023/11/03 13:31:47;;;;;;;5.23;1.83;;;;;;;;;;5083537;28;20448;-78
2023/11/03 13:34:15;;;;;;;2.20;0.90;;;;;;;;;;5096093;28;20509;-79
2023/11/03 13:36:43;;;;;;;4.73;1.60;;;;;;;;;;5104051;28;20486;-78
2023/11/03 13:39:11;;;;;;;9.03;1.90;;;;;;;;;;5104855;28;20554;-79
2023/11/03 13:41:47;;;;;;;5.53;1.70;;;;;;;;;;5098304;28;20449;-78
2023/11/03 13:44:19;;;;;;;4.73;1.50;;;;;;;;;;5095976;28;20462;-78
2023/11/03 13:46:51;;;;;;;4.00;1.40;;;;;;;;;;5099886;28;20470;-79
2023/11/03 13:49:20;;;;;;;3.57;1.47;;;;;;;;;;5098722;28;20458;-79
2023/11/03 13:51:48;;;;;;;4.40;1.37;;;;;;;;;;5092235;28;20463;-79
2023/11/03 13:54:17;;;;;;;7.73;1.97;;;;;;;;;;5096543;28;21065;-78
2023/11/03 13:56:45;;;;;;;3.50;1.20;;;;;;;;;;5092595;28;20449;-79
2023/11/03 13:59:14;;;;;;;4.60;1.53;;;;;;;;;;5099955;28;20475;-81
2023/11/03 14:01:43;;;;;;;4.77;1.70;;;;;;;;;;5086696;28;20457;-78
2023/11/03 14:04:13;;;;;;;4.00;1.43;;;;;;;;;;5093574;28;20455;-80
2023/11/03 14:06:41;;;;;;;5.57;2.33;;;;;;;;;;5099512;28;20463;-79
2023/11/03 14:09:10;;;;;;;7.93;2.37;;;;;;;;;;5100069;28;20473;-80
2023/11/03 14:11:38;;;;;;;5.97;1.67;;;;;;;;;;5097713;28;20866;-77
2023/11/03 14:14:06;;;;;;;5.83;2.77;;;;;;;;;;5085042;28;20476;-78
2023/11/03 14:16:34;;;;;;;7.33;2.77;;;;;;;;;;5089630;28;20452;-79
2023/11/03 14:19:02;;;;;;;5.10;1.77;;;;;;;;;;5089951;28;20954;-79
2023/11/03 14:21:32;;;;;;;3.57;2.30;;;;;;;;;;5102104;28;20546;-78
2023/11/03 14:24:02;;;;;;;4.60;1.90;;;;;;;;;;5097674;28;20451;-79
2023/11/03 14:26:29;;;;;;;6.60;2.10;;;;;;;;;;5096341;28;20456;-78
2023/11/03 14:28:57;;;;;;;5.63;2.10;;;;;;;;;;5100870;28;20458;-80
2023/11/03 14:31:25;;;;;;;3.47;1.40;;;;;;;;;;5099450;28;20455;-79
2023/11/03 14:33:53;;;;;;;8.03;2.27;;;;;;;;;;5098170;28;20459;-78
2023/11/03 14:36:20;;;;;;;5.03;2.00;;;;;;;;;;5086578;28;20472;-80
2023/11/03 14:38:59;;;;;;;5.20;2.07;;;;;;;;;;5088892;28;20487;-78
2023/11/03 14:41:32;;;;;;;8.67;3.37;;;;;;;;;;5092672;28;20452;-81
2023/11/03 14:44:07;;;;;;;12.13;2.30;;;;;;;;;;5083555;28;20448;-79
2023/11/03 14:46:41;;;;;;;8.37;2.00;;;;;;;;;;5088707;28;20464;-79
2023/11/03 14:49:10;;;;;;;6.27;1.80;;;;;;;;;;5099720;28;20459;-79
2023/11/03 14:51:38;;;;;;;7.97;1.87;;;;;;;;;;5102418;28;20499;-78
2023/11/03 14:54:08;;;;;;;5.47;1.87;;;;;;;;;;5100803;28;20460;-78
2023/11/03 14:56:36;;;;;;;6.33;1.60;;;;;;;;;;5103467;28;20463;-77